createdAt,value
2022-10-02T00:02:21.138Z,9.72
2022-10-02T00:05:09.749Z,9.71
2022-10-02T00:07:50.157Z,9.71
2022-10-02T00:10:44.640Z,9.70
2022-10-02T00:13:24.830Z,9.65
2022-10-02T00:15:53.076Z,9.65
2022-10-02T00:18:31.659Z,9.63
2022-10-02T00:21:07.996Z,9.70
2022-10-02T00:23:39.475Z,9.71
2022-10-02T00:26:15.535Z,9.70
2022-10-02T00:28:50.154Z,9.77
2022-10-02T00:31:39.052Z,9.77
2022-10-02T00:34:37.782Z,9.72
2022-10-02T00:37:22.459Z,9.72
2022-10-02T00:40:24.772Z,9.74
2022-10-02T00:43:28.124Z,9.77
2022-10-02T00:46:06.805Z,9.84
2022-10-02T00:49:12.496Z,9.90
2022-10-02T00:51:57.008Z,9.94
2022-10-02T00:54:28.583Z,9.98
2022-10-02T00:57:29.754Z,10.07
2022-10-02T01:00:11.073Z,10.04
2022-10-02T01:02:59.144Z,10.06
2022-10-02T01:05:27.165Z,10.06
2022-10-02T01:07:55.240Z,10.04
2022-10-02T01:10:22.942Z,10.13
2022-10-02T01:12:49.982Z,10.17
2022-10-02T01:15:19.921Z,10.19
2022-10-02T01:17:49.652Z,10.12
2022-10-02T01:20:24.839Z,10.14
2022-10-02T01:23:20.037Z,10.11
2022-10-02T01:25:46.904Z,10.12
2022-10-02T01:28:13.361Z,10.13
2022-10-02T01:30:44.236Z,10.13
2022-10-02T01:33:12.627Z,10.12
2022-10-02T01:35:39.918Z,10.17
2022-10-02T01:38:13.391Z,10.13
2022-10-02T01:40:41.766Z,10.13
2022-10-02T01:43:11.684Z,10.17
2022-10-02T01:45:45.192Z,10.11
2022-10-02T01:48:38.562Z,9.98
2022-10-02T01:51:20.439Z,9.98
2022-10-02T01:54:20.886Z,9.94
2022-10-02T01:57:06.236Z,9.97
2022-10-02T01:59:50.529Z,9.90
2022-10-02T02:02:29.918Z,9.87
2022-10-02T02:05:08.679Z,9.87
2022-10-02T02:07:50.740Z,9.88
2022-10-02T02:11:03.356Z,9.82
2022-10-02T02:13:47.488Z,9.71
2022-10-02T02:16:29.009Z,9.68
2022-10-02T02:19:01.309Z,9.70
2022-10-02T02:21:32.999Z,9.70
2022-10-02T02:24:04.429Z,9.67
2022-10-02T02:26:33.009Z,9.71
2022-10-02T02:29:07.367Z,9.72
2022-10-02T02:31:40.786Z,9.68
2022-10-02T02:34:12.492Z,9.73
2022-10-02T02:36:43.341Z,9.73
2022-10-02T02:39:14.787Z,9.75
2022-10-02T02:41:52.515Z,9.69
2022-10-02T02:44:25.579Z,9.68
2022-10-02T02:47:06.661Z,9.69
2022-10-02T02:49:42.200Z,9.65
2022-10-02T02:52:14.324Z,9.66
2022-10-02T02:54:54.562Z,9.67
2022-10-02T02:57:32.863Z,9.65
2022-10-02T03:00:02.340Z,9.67
2022-10-02T03:02:28.796Z,9.65
2022-10-02T03:04:55.221Z,9.67
2022-10-02T03:07:21.591Z,9.69
2022-10-02T03:10:05.227Z,9.71
2022-10-02T03:12:42.983Z,9.67
2022-10-02T03:15:21.434Z,9.71
2022-10-02T03:18:31.391Z,9.73
2022-10-02T03:21:33.388Z,9.80
2022-10-02T03:24:19.644Z,9.80
2022-10-02T03:27:02.721Z,9.83
2022-10-02T03:29:45.568Z,9.82
2022-10-02T03:32:15.324Z,9.82
2022-10-02T03:34:41.846Z,9.83
2022-10-02T03:37:08.428Z,9.85
2022-10-02T03:39:34.813Z,9.86
2022-10-02T03:42:01.535Z,9.85
2022-10-02T03:44:27.894Z,9.85
2022-10-02T03:46:54.249Z,9.83
2022-10-02T03:49:20.664Z,9.84
2022-10-02T03:51:47.089Z,9.85
2022-10-02T03:54:18.168Z,9.89
2022-10-02T03:56:56.656Z,9.87
2022-10-02T03:59:41.375Z,9.88
2022-10-02T04:02:19.010Z,9.86
2022-10-02T04:04:56.138Z,9.90
2022-10-02T04:07:32.452Z,9.85
2022-10-02T04:10:14.055Z,9.79
2022-10-02T04:12:46.726Z,9.80
2022-10-02T04:15:31.964Z,9.75
2022-10-02T04:18:07.942Z,9.72
2022-10-02T04:20:47.144Z,9.72
2022-10-02T04:23:34.213Z,9.71
2022-10-02T04:26:33.828Z,9.63
2022-10-02T04:29:08.732Z,9.57
2022-10-02T04:31:35.141Z,9.63
2022-10-02T04:34:03.166Z,9.57
2022-10-02T04:36:37.385Z,9.54
2022-10-02T04:39:46.378Z,9.54
2022-10-02T04:42:40.894Z,9.54
2022-10-02T04:45:20.614Z,9.51
2022-10-02T04:47:52.992Z,9.44
2022-10-02T04:50:50.596Z,9.44
2022-10-02T04:53:43.469Z,9.44
2022-10-02T04:56:46.761Z,9.43
2022-10-02T04:59:37.959Z,9.51
2022-10-02T05:02:32.239Z,9.44
2022-10-02T05:05:25.306Z,9.41
2022-10-02T05:08:39.906Z,9.40
2022-10-02T05:11:40.341Z,9.48
2022-10-02T05:14:34.802Z,9.43
2022-10-02T05:17:12.828Z,9.46
2022-10-02T05:20:00.541Z,9.46
2022-10-02T05:22:44.877Z,9.50
2022-10-02T05:25:28.949Z,9.55
2022-10-02T05:28:21.564Z,9.56
2022-10-02T05:31:00.044Z,9.59
2022-10-02T05:33:32.966Z,9.56
2022-10-02T05:36:08.611Z,9.62
2022-10-02T05:38:59.167Z,9.64
2022-10-02T05:41:34.407Z,9.67
2022-10-02T05:44:10.231Z,9.71
2022-10-02T05:47:13.401Z,9.72
2022-10-02T05:49:53.561Z,9.73
2022-10-02T05:52:27.292Z,9.75
2022-10-02T05:55:03.743Z,9.76
2022-10-02T05:57:33.132Z,9.71
2022-10-02T06:00:21.736Z,9.73
2022-10-02T06:03:09.270Z,9.79
2022-10-02T06:05:46.297Z,9.74
2022-10-02T06:08:18.674Z,9.73
2022-10-02T06:10:51.388Z,9.78
2022-10-02T06:13:27.408Z,9.78
2022-10-02T06:16:10.937Z,9.82
2022-10-02T06:18:41.745Z,9.83
2022-10-02T06:21:24.786Z,9.86
2022-10-02T06:23:56.125Z,9.85
2022-10-02T06:26:32.631Z,9.89
2022-10-02T06:29:09.731Z,9.95
2022-10-02T06:31:46.969Z,9.98
2022-10-02T06:34:14.515Z,9.99
2022-10-02T06:37:14.252Z,9.99
2022-10-02T06:40:08.663Z,10.01
2022-10-02T06:42:42.034Z,10.01
2022-10-02T06:45:40.027Z,10.01
2022-10-02T06:48:34.390Z,10.03
2022-10-02T06:51:11.767Z,10.06
2022-10-02T06:53:47.396Z,10.16
2022-10-02T06:56:52.041Z,10.27
2022-10-02T06:59:32.106Z,10.29
2022-10-02T07:02:28.879Z,10.32
2022-10-02T07:04:58.136Z,10.31
2022-10-02T07:07:51.346Z,10.35
2022-10-02T07:10:32.898Z,10.31
2022-10-02T07:13:02.867Z,10.33
2022-10-02T07:15:54.875Z,10.25
2022-10-02T07:18:33.389Z,10.29
2022-10-02T07:21:15.989Z,10.27
2022-10-02T07:24:26.423Z,10.24
2022-10-02T07:27:23.066Z,10.35
2022-10-02T07:29:56.434Z,10.39
2022-10-02T07:32:43.614Z,10.50
2022-10-02T07:35:27.624Z,10.55
2022-10-02T07:38:44.583Z,10.74
2022-10-02T07:41:29.579Z,10.81
2022-10-02T07:44:15.349Z,10.89
2022-10-02T07:46:59.885Z,10.86
2022-10-02T07:49:45.074Z,11.00
2022-10-02T07:52:22.242Z,11.04
2022-10-02T07:54:58.484Z,11.09
2022-10-02T07:57:34.066Z,11.04
2022-10-02T08:00:10.906Z,11.03
2022-10-02T08:02:47.726Z,11.04
2022-10-02T08:05:23.510Z,10.91
2022-10-02T08:07:54.092Z,10.85
2022-10-02T08:10:25.651Z,10.99
2022-10-02T08:13:04.893Z,11.09
2022-10-02T08:15:36.412Z,11.15
2022-10-02T08:18:33.113Z,11.13
2022-10-02T08:21:01.983Z,11.12
2022-10-02T08:23:33.954Z,11.15
2022-10-02T08:26:12.356Z,11.11
2022-10-02T08:28:57.651Z,11.01
2022-10-02T08:31:25.269Z,10.88
2022-10-02T08:33:51.881Z,10.88
2022-10-02T08:36:47.099Z,10.77
2022-10-02T08:39:42.607Z,10.72
2022-10-02T08:42:55.308Z,10.66
2022-10-02T08:45:37.006Z,10.72
2022-10-02T08:48:15.344Z,10.70
2022-10-02T08:51:25.473Z,10.73
2022-10-02T08:54:13.893Z,10.77
2022-10-02T08:56:50.158Z,10.92
2022-10-02T09:00:02.221Z,11.13
2022-10-02T09:02:57.038Z,11.43
2022-10-02T09:05:57.837Z,11.36
2022-10-02T09:08:39.421Z,11.54
2022-10-02T09:11:31.441Z,11.75
2022-10-02T09:14:25.523Z,11.84
2022-10-02T09:17:14.330Z,11.90
2022-10-02T09:20:02.611Z,11.79
2022-10-02T09:23:06.895Z,11.95
2022-10-02T09:25:44.342Z,12.12
2022-10-02T09:28:48.245Z,12.25
2022-10-02T09:31:40.320Z,12.18
2022-10-02T09:34:20.867Z,12.07
2022-10-02T09:37:17.847Z,11.91
2022-10-02T09:40:11.907Z,11.92
2022-10-02T09:43:15.928Z,12.12
2022-10-02T09:45:48.893Z,12.30
2022-10-02T09:48:52.817Z,12.45
2022-10-02T09:51:49.695Z,12.54
2022-10-02T09:54:46.671Z,12.69
2022-10-02T09:57:35.767Z,12.65
2022-10-02T10:00:40.769Z,12.79
2022-10-02T10:03:36.201Z,12.80
2022-10-02T10:06:25.830Z,12.84
2022-10-02T10:09:20.146Z,13.05
2022-10-02T10:11:55.362Z,13.21
2022-10-02T10:14:49.766Z,13.41
2022-10-02T10:18:04.520Z,13.50
2022-10-02T10:21:08.506Z,13.63
2022-10-02T10:23:38.038Z,13.59
2022-10-02T10:26:29.009Z,13.51
2022-10-02T10:29:14.558Z,13.59
2022-10-02T10:32:09.121Z,13.94
2022-10-02T10:35:01.815Z,13.97
2022-10-02T10:38:05.638Z,13.91
2022-10-02T10:41:11.038Z,13.78
2022-10-02T10:43:58.741Z,13.65
2022-10-02T10:46:53.524Z,13.46
2022-10-02T10:49:44.311Z,13.33
2022-10-02T10:52:31.764Z,13.26
2022-10-02T10:55:19.142Z,13.23
2022-10-02T10:58:23.150Z,13.19
2022-10-02T11:01:18.602Z,13.14
2022-10-02T11:04:23.126Z,13.15
2022-10-02T11:07:13.692Z,13.04
2022-10-02T11:09:52.072Z,13.03
2022-10-02T11:12:39.018Z,13.14
2022-10-02T11:15:36.960Z,13.06
2022-10-02T11:18:28.571Z,13.18
2022-10-02T11:21:17.984Z,13.14
2022-10-02T11:24:14.964Z,12.92
2022-10-02T11:26:53.215Z,12.80
2022-10-02T11:29:48.252Z,12.68
2022-10-02T11:33:02.982Z,12.64
2022-10-02T11:35:48.939Z,12.91
2022-10-02T11:38:32.448Z,13.10
2022-10-02T11:41:46.626Z,12.96
2022-10-02T11:44:27.927Z,13.23
2022-10-02T11:47:24.421Z,13.37
2022-10-02T11:50:34.862Z,13.50
2022-10-02T11:53:34.447Z,13.67
2022-10-02T11:56:12.830Z,13.70
2022-10-02T11:59:03.084Z,13.62
2022-10-02T12:01:35.371Z,13.51
2022-10-02T12:04:04.317Z,13.53
2022-10-02T12:06:33.666Z,13.68
2022-10-02T12:09:22.130Z,13.84
2022-10-02T12:12:16.304Z,14.04
2022-10-02T12:14:49.431Z,14.03
2022-10-02T12:17:41.431Z,14.05
2022-10-02T12:20:41.034Z,13.85
2022-10-02T12:23:43.461Z,13.63
2022-10-02T12:26:39.493Z,13.78
2022-10-02T12:29:08.797Z,13.96
2022-10-02T12:32:02.481Z,14.09
2022-10-02T12:34:58.841Z,14.06
2022-10-02T12:37:36.783Z,14.15
2022-10-02T12:40:37.376Z,14.24
2022-10-02T12:43:18.029Z,14.32
2022-10-02T12:46:13.819Z,14.49
2022-10-02T12:48:55.563Z,14.38
2022-10-02T12:51:35.435Z,14.11
2022-10-02T12:54:33.871Z,13.92
2022-10-02T12:57:42.514Z,14.01
2022-10-02T13:00:16.145Z,14.10
2022-10-02T13:03:05.819Z,14.23
2022-10-02T13:06:19.318Z,14.24
2022-10-02T13:09:33.906Z,14.29
2022-10-02T13:12:37.855Z,14.32
2022-10-02T13:15:18.542Z,14.41
2022-10-02T13:18:00.409Z,14.49
2022-10-02T13:20:45.208Z,14.50
2022-10-02T13:23:17.726Z,14.59
2022-10-02T13:26:12.682Z,14.61
2022-10-02T13:29:02.617Z,14.75
2022-10-02T13:31:54.445Z,14.87
2022-10-02T13:34:46.998Z,14.82
2022-10-02T13:37:20.512Z,14.78
2022-10-02T13:40:18.864Z,14.61
2022-10-02T13:43:24.199Z,14.54
2022-10-02T13:46:20.518Z,14.54
2022-10-02T13:49:24.214Z,14.62
2022-10-02T13:52:10.999Z,14.65
2022-10-02T13:55:14.591Z,14.50
2022-10-02T13:58:13.109Z,14.41
2022-10-02T14:00:45.326Z,14.34
2022-10-02T14:03:33.430Z,14.45
2022-10-02T14:06:26.866Z,14.70
2022-10-02T14:09:02.609Z,14.78
2022-10-02T14:12:10.646Z,14.76
2022-10-02T14:14:49.453Z,14.70
2022-10-02T14:17:28.414Z,14.69
2022-10-02T14:20:20.994Z,14.71
2022-10-02T14:23:25.677Z,14.77
2022-10-02T14:26:26.641Z,14.55
2022-10-02T14:28:55.708Z,14.40
2022-10-02T14:31:43.941Z,14.36
2022-10-02T14:34:32.121Z,14.34
2022-10-02T14:37:25.910Z,14.28
2022-10-02T14:39:55.310Z,14.19
2022-10-02T14:42:51.383Z,14.17
2022-10-02T14:46:07.611Z,14.14
2022-10-02T14:48:55.912Z,14.10
2022-10-02T14:51:25.238Z,14.07
2022-10-02T14:54:13.324Z,14.05
2022-10-02T14:57:02.124Z,14.04
2022-10-02T14:59:45.408Z,13.97
2022-10-02T15:02:23.170Z,13.93
2022-10-02T15:05:06.921Z,13.96
2022-10-02T15:07:36.046Z,13.94
2022-10-02T15:10:25.056Z,13.82
2022-10-02T15:13:02.473Z,13.82
2022-10-02T15:15:42.974Z,13.85
2022-10-02T15:18:40.438Z,13.85
2022-10-02T15:21:29.004Z,13.74
2022-10-02T15:23:59.404Z,13.72
2022-10-02T15:26:34.103Z,13.71
2022-10-02T15:29:31.512Z,13.67
2022-10-02T15:32:25.916Z,13.71
2022-10-02T15:34:55.205Z,13.71
2022-10-02T15:37:30.323Z,13.70
2022-10-02T15:40:09.985Z,13.66
2022-10-02T15:42:53.215Z,13.60
2022-10-02T15:45:22.553Z,13.49
2022-10-02T15:48:43.755Z,13.52
2022-10-02T15:51:40.369Z,13.52
2022-10-02T15:54:14.673Z,13.50
2022-10-02T15:57:00.943Z,13.50
2022-10-02T15:59:27.151Z,13.49
2022-10-02T16:02:12.690Z,13.45
2022-10-02T16:04:39.419Z,13.43
2022-10-02T16:07:47.110Z,13.41
2022-10-02T16:10:19.316Z,13.36
2022-10-02T16:12:54.735Z,13.34
2022-10-02T16:15:28.615Z,13.23
2022-10-02T16:18:14.096Z,13.18
2022-10-02T16:20:57.010Z,13.12
2022-10-02T16:23:44.784Z,13.13
2022-10-02T16:26:32.344Z,12.98
2022-10-02T16:29:22.755Z,12.97
2022-10-02T16:32:10.658Z,12.89
2022-10-02T16:35:16.455Z,12.86
2022-10-02T16:38:24.746Z,12.73
2022-10-02T16:40:51.001Z,12.72
2022-10-02T16:43:45.243Z,12.81
2022-10-02T16:46:30.961Z,12.75
2022-10-02T16:49:20.629Z,12.75
2022-10-02T16:52:06.616Z,12.77
2022-10-02T16:54:44.848Z,12.76
2022-10-02T16:57:19.829Z,12.75
2022-10-02T16:59:58.308Z,12.69
2022-10-02T17:02:43.478Z,12.67
2022-10-02T17:05:31.686Z,12.56
2022-10-02T17:08:16.428Z,12.51
2022-10-02T17:11:03.392Z,12.48
2022-10-02T17:13:42.875Z,12.42
2022-10-02T17:16:21.496Z,12.34
2022-10-02T17:19:01.742Z,12.20
2022-10-02T17:21:39.234Z,12.18
2022-10-02T17:24:33.396Z,12.16
2022-10-02T17:27:09.920Z,12.07
2022-10-02T17:29:48.187Z,12.02
2022-10-02T17:32:33.622Z,11.90
2022-10-02T17:35:00.022Z,11.90
2022-10-02T17:37:41.307Z,11.79
2022-10-02T17:40:20.803Z,11.79
2022-10-02T17:43:05.865Z,11.71
2022-10-02T17:45:42.798Z,11.70
2022-10-02T17:48:14.703Z,11.66
2022-10-02T17:50:53.132Z,11.63
2022-10-02T17:53:59.620Z,11.57
2022-10-02T17:56:55.180Z,11.49
2022-10-02T17:59:27.447Z,11.52
2022-10-02T18:02:08.269Z,11.47
2022-10-02T18:04:39.449Z,11.45
2022-10-02T18:07:17.495Z,11.41
2022-10-02T18:09:56.028Z,11.35
2022-10-02T18:12:40.469Z,11.45
2022-10-02T18:15:09.528Z,11.38
2022-10-02T18:17:51.366Z,11.33
2022-10-02T18:20:34.541Z,11.29
2022-10-02T18:23:31.822Z,11.21
2022-10-02T18:26:18.734Z,11.15
2022-10-02T18:29:23.155Z,11.13
2022-10-02T18:32:20.717Z,11.14
2022-10-02T18:35:15.279Z,11.08
2022-10-02T18:38:09.653Z,11.06
2022-10-02T18:40:55.862Z,11.01
2022-10-02T18:43:49.928Z,10.91
2022-10-02T18:46:49.516Z,10.94
2022-10-02T18:49:15.823Z,10.93
2022-10-02T18:51:45.068Z,10.89
2022-10-02T18:54:27.528Z,10.87
2022-10-02T18:57:02.676Z,10.83
2022-10-02T19:00:06.444Z,10.83
2022-10-02T19:02:54.558Z,10.81
2022-10-02T19:05:27.061Z,10.78
2022-10-02T19:08:09.906Z,10.76
2022-10-02T19:10:36.196Z,10.75
2022-10-02T19:13:24.757Z,10.71
2022-10-02T19:15:54.101Z,10.69
2022-10-02T19:18:26.853Z,10.66
2022-10-02T19:21:13.323Z,10.67
2022-10-02T19:23:48.657Z,10.67
2022-10-02T19:26:19.846Z,10.66
2022-10-02T19:28:55.078Z,10.64
2022-10-02T19:31:24.834Z,10.65
2022-10-02T19:33:56.182Z,10.66
2022-10-02T19:36:26.008Z,10.68
2022-10-02T19:38:56.984Z,10.69
2022-10-02T19:41:23.746Z,10.68
2022-10-02T19:43:56.976Z,10.66
2022-10-02T19:46:39.400Z,10.71
2022-10-02T19:49:07.543Z,10.69
2022-10-02T19:51:43.501Z,10.68
2022-10-02T19:54:31.677Z,10.68
2022-10-02T19:57:14.877Z,10.76
2022-10-02T19:59:53.905Z,10.69
2022-10-02T20:02:29.658Z,10.74
2022-10-02T20:05:00.473Z,10.71
2022-10-02T20:07:30.000Z,10.68
2022-10-02T20:10:22.803Z,10.64
2022-10-02T20:13:00.329Z,10.60
2022-10-02T20:16:40.839Z,10.57
2022-10-02T20:19:14.533Z,10.58
2022-10-02T20:21:59.979Z,10.58
2022-10-02T20:24:33.202Z,10.60
2022-10-02T20:27:06.230Z,10.64
2022-10-02T20:29:45.898Z,10.66
2022-10-02T20:32:23.867Z,10.70
2022-10-02T20:34:56.256Z,10.65
2022-10-02T20:37:26.188Z,10.64
2022-10-02T20:40:03.329Z,10.64
2022-10-02T20:42:37.237Z,10.66
2022-10-02T20:45:03.885Z,10.65
2022-10-02T20:47:38.965Z,10.60
2022-10-02T20:50:33.421Z,10.57
2022-10-02T20:53:15.857Z,10.53
2022-10-02T20:55:56.082Z,10.51
2022-10-02T20:58:36.618Z,10.60
2022-10-02T21:01:20.630Z,10.61
2022-10-02T21:04:24.389Z,10.60
2022-10-02T21:06:56.351Z,10.57
2022-10-02T21:09:56.731Z,10.45
2022-10-02T21:12:40.454Z,10.44
2022-10-02T21:15:46.616Z,10.47
2022-10-02T21:18:52.782Z,10.49
2022-10-02T21:21:53.662Z,10.46
2022-10-02T21:25:13.894Z,10.41
2022-10-02T21:27:58.005Z,10.39
2022-10-02T21:30:38.349Z,10.49
2022-10-02T21:33:22.665Z,10.50
2022-10-02T21:35:56.718Z,10.43
2022-10-02T21:39:00.763Z,10.43
2022-10-02T21:42:03.492Z,10.41
2022-10-02T21:44:35.698Z,10.36
2022-10-02T21:47:20.908Z,10.34
2022-10-02T21:50:25.110Z,10.29
2022-10-02T21:53:16.747Z,10.25
2022-10-02T21:56:00.328Z,10.15
2022-10-02T21:58:59.440Z,10.20
2022-10-02T22:01:42.769Z,10.10
2022-10-02T22:04:54.618Z,10.13
2022-10-02T22:07:30.184Z,10.09
2022-10-02T22:10:05.466Z,10.05
2022-10-02T22:12:45.762Z,10.05
2022-10-02T22:15:24.762Z,10.00
2022-10-02T22:18:12.060Z,9.95
2022-10-02T22:21:22.068Z,10.02
2022-10-02T22:24:02.924Z,10.07
2022-10-02T22:26:57.681Z,10.04
2022-10-02T22:29:35.539Z,10.00
2022-10-02T22:32:35.757Z,9.95
2022-10-02T22:35:20.977Z,10.01
2022-10-02T22:38:04.149Z,9.91
2022-10-02T22:40:44.245Z,9.90
2022-10-02T22:43:19.532Z,9.90
2022-10-02T22:46:23.873Z,9.86
2022-10-02T22:48:58.593Z,9.89
2022-10-02T22:51:43.631Z,9.84
2022-10-02T22:54:30.606Z,9.74
2022-10-02T22:56:59.597Z,9.76
2022-10-02T22:59:49.122Z,9.83
2022-10-02T23:02:36.935Z,9.78
2022-10-02T23:05:25.802Z,9.75
2022-10-02T23:08:18.671Z,9.79
2022-10-02T23:10:50.879Z,9.84
2022-10-02T23:13:41.924Z,9.84
2022-10-02T23:16:12.706Z,9.86
2022-10-02T23:18:48.489Z,9.86
2022-10-02T23:21:24.852Z,9.86
2022-10-02T23:24:13.012Z,9.82
2022-10-02T23:26:48.669Z,9.86
2022-10-02T23:29:38.083Z,9.88
2022-10-02T23:32:20.119Z,9.95
2022-10-02T23:34:55.260Z,9.91
2022-10-02T23:37:45.702Z,9.96
2022-10-02T23:40:52.444Z,9.98
2022-10-02T23:43:38.295Z,9.95
2022-10-02T23:46:14.785Z,9.93
2022-10-02T23:48:42.091Z,9.89
2022-10-02T23:51:31.931Z,9.89
2022-10-02T23:54:16.723Z,9.87
2022-10-02T23:57:08.555Z,9.86
2022-10-02T23:59:44.151Z,9.82
